createdAt,value
2023-03-22T00:02:13.907Z,15.20
2023-03-22T00:17:18.435Z,15.40
2023-03-22T00:32:23.017Z,15.60
2023-03-22T00:47:27.569Z,14.90
2023-03-22T01:02:33.992Z,14.70
2023-03-22T01:17:38.631Z,14.70
2023-03-22T01:32:43.514Z,14.60
2023-03-22T01:47:53.242Z,14.60
2023-03-22T02:02:58.400Z,14.90
2023-03-22T02:18:26.080Z,14.70
2023-03-22T02:34:18.239Z,14.50
2023-03-22T02:49:30.570Z,14.40
2023-03-22T03:04:38.922Z,14.30
2023-03-22T03:19:53.162Z,14.50
2023-03-22T03:35:03.634Z,14.20
2023-03-22T03:50:09.560Z,14.30
2023-03-22T04:05:14.978Z,14.30
2023-03-22T04:20:20.862Z,14.30
2023-03-22T04:35:25.481Z,13.90
2023-03-22T04:50:31.873Z,14.10
2023-03-22T05:05:40.603Z,14.50
2023-03-22T05:20:45.580Z,14.30
2023-03-22T05:35:55.583Z,14.40
2023-03-22T05:51:03.345Z,14.50
2023-03-22T06:06:11.617Z,14.50
2023-03-22T06:21:23.301Z,14.60
2023-03-22T06:36:27.992Z,14.70
2023-03-22T06:51:42.199Z,14.60
2023-03-22T07:06:46.934Z,14.10
2023-03-22T07:21:53.215Z,14.90
2023-03-22T07:36:59.238Z,14.20
2023-03-22T07:52:04.974Z,14.40
2023-03-22T08:07:10.079Z,14.50
2023-03-22T08:22:15.447Z,14.70
2023-03-22T08:37:56.909Z,14.80
2023-03-22T08:53:08.246Z,14.80
2023-03-22T09:08:19.221Z,14.90
2023-03-22T09:23:27.151Z,14.60
2023-03-22T09:38:35.299Z,14.80
2023-03-22T09:53:41.074Z,15.10
2023-03-22T10:08:55.297Z,15.30
2023-03-22T10:24:01.462Z,15.10
2023-03-22T10:39:16.659Z,15.40
2023-03-22T10:54:25.743Z,15.20
2023-03-22T11:09:30.546Z,15.50
2023-03-22T11:24:36.003Z,15.40
2023-03-22T11:39:48.354Z,15.70
2023-03-22T11:54:54.197Z,16.00
2023-03-22T12:10:03.331Z,16.20
2023-03-22T12:25:14.819Z,16.00
2023-03-22T12:40:25.658Z,15.90
2023-03-22T12:55:32.305Z,16.20
2023-03-22T13:11:01.906Z,16.70
2023-03-22T13:26:06.980Z,16.40
2023-03-22T13:41:22.597Z,16.60
2023-03-22T13:56:34.832Z,16.70
2023-03-22T14:11:46.277Z,16.70
